KMKT/MKT METAR and TAF weather

Enter ICAO airport designator
Station Type Date Time Source
KMKT METAR 2019/06/18 13:56 UTC NOAA

KMKT 181356Z AUTO 32008KT 10SM CLR 18/12 A3001 RMK AO2 SLP163 T01780117


Station Type Date Time Source
KMKT Decoded METAR 2019/06/18 13:56 UTC NOAA

Mankato, Mankato Regional Airport, MN, United States (KMKT) 44-13N 093-55W
Jun 18, 2019 - 09:56 AM EDT / 2019.06.18 1356 UTC
Wind: from the NW (320 degrees) at 9 MPH (8 KT):0
Visibility: 10 mile(s):0
Sky conditions: clear
Temperature: 64.0 F (17.8 C)
Dew Point: 53.1 F (11.7 C)
Relative Humidity: 67%
Pressure (altimeter): 30.01 in. Hg (1016 hPa)
ob: KMKT 181356Z AUTO 32008KT 10SM CLR 18/12 A3001 RMK AO2 SLP163 T01780117
cycle: 14

Station Type Date Time Source
KMKT TAF 2019/06/18 12:45 UTC NOAA

TAF KMKT 181143Z 1812/1912 33005KT P6SM SCT050 BKN100
FM181800 32006KT P6SM BKN050
FM190300 02003KT P6SM BKN100

Example: see airport list